Terminal Aerodrome Forecast
Issued by NWS Cleveland, OH

Home | Current Version | Previous Version | Graphics & Text | Print | Product List | Glossary On
Versions: 1 2 3 4 5 6 7 8 9 10 11 12 13 14 15 16 17 18 19 20
000
FTUS41 KCLE 311600 AAA
TAFCAK
TAF AMD
KCAK 311623Z 3116/0112 31012G22KT P6SM OVC035
     FM311800 35012KT P6SM OVC025
     FM312300 34006KT P6SM BKN035
     FM010200 VRB04KT P6SM BKN120
     FM010800 20004KT P6SM BKN060=

USA.gov is the U.S. government's official web portal to all federal, state and local government web resources and services.